sensor_id;sensor_type;location;lat;lon;timestamp;pressure;altitude;pressure_sealevel;temperature;humidity
32083;BME280;18597;48.328;7.932;2022-07-10T00:01:27;100104.69;;;17.68;81.32
32083;BME280;18597;48.328;7.932;2022-07-10T00:03:53;100108.56;;;17.65;80.58
32083;BME280;18597;48.328;7.932;2022-07-10T00:06:20;100100.81;;;17.62;80.94
32083;BME280;18597;48.328;7.932;2022-07-10T00:08:46;100110.06;;;17.60;81.11
32083;BME280;18597;48.328;7.932;2022-07-10T00:11:12;100109.41;;;17.58;81.59
32083;BME280;18597;48.328;7.932;2022-07-10T00:13:38;100104.84;;;17.66;81.45
32083;BME280;18597;48.328;7.932;2022-07-10T00:16:04;100098.81;;;17.72;81.48
32083;BME280;18597;48.328;7.932;2022-07-10T00:18:30;100104.25;;;17.81;81.38
32083;BME280;18597;48.328;7.932;2022-07-10T00:20:56;100109.09;;;17.69;82.37
32083;BME280;18597;48.328;7.932;2022-07-10T00:23:22;100098.09;;;17.62;82.74
32083;BME280;18597;48.328;7.932;2022-07-10T00:25:49;100105.50;;;17.52;83.72
32083;BME280;18597;48.328;7.932;2022-07-10T00:28:14;100111.69;;;17.36;84.64
32083;BME280;18597;48.328;7.932;2022-07-10T00:30:40;100108.53;;;17.49;83.82
32083;BME280;18597;48.328;7.932;2022-07-10T00:33:07;100099.22;;;17.43;83.72
32083;BME280;18597;48.328;7.932;2022-07-10T00:35:33;100113.69;;;17.26;84.61
32083;BME280;18597;48.328;7.932;2022-07-10T00:37:58;100105.56;;;17.18;85.53
32083;BME280;18597;48.328;7.932;2022-07-10T00:40:24;100111.66;;;17.28;84.56
32083;BME280;18597;48.328;7.932;2022-07-10T00:42:51;100109.59;;;17.22;84.80
32083;BME280;18597;48.328;7.932;2022-07-10T00:45:16;100105.59;;;17.34;84.45
32083;BME280;18597;48.328;7.932;2022-07-10T00:47:42;100116.38;;;17.26;85.32
32083;BME280;18597;48.328;7.932;2022-07-10T00:50:08;100117.59;;;17.32;85.16
32083;BME280;18597;48.328;7.932;2022-07-10T00:52:35;100117.59;;;17.32;84.75
32083;BME280;18597;48.328;7.932;2022-07-10T00:55:06;100117.78;;;17.38;84.38
32083;BME280;18597;48.328;7.932;2022-07-10T00:57:33;100105.69;;;17.59;82.88
32083;BME280;18597;48.328;7.932;2022-07-10T00:59:59;100113.78;;;17.59;82.45
32083;BME280;18597;48.328;7.932;2022-07-10T01:02:25;100108.13;;;17.78;81.76
32083;BME280;18597;48.328;7.932;2022-07-10T01:04:51;100101.56;;;17.89;81.29
32083;BME280;18597;48.328;7.932;2022-07-10T01:07:17;100094.94;;;17.75;81.98
32083;BME280;18597;48.328;7.932;2022-07-10T01:09:43;100100.28;;;17.67;82.40
32083;BME280;18597;48.328;7.932;2022-07-10T01:12:11;100088.81;;;17.65;82.63
32083;BME280;18597;48.328;7.932;2022-07-10T01:14:38;100081.06;;;17.62;82.91
32083;BME280;18597;48.328;7.932;2022-07-10T01:17:08;100079.25;;;17.70;82.64
32083;BME280;18597;48.328;7.932;2022-07-10T01:19:34;100077.81;;;17.58;82.88
32083;BME280;18597;48.328;7.932;2022-07-10T01:22:00;100073.97;;;17.61;82.78
32083;BME280;18597;48.328;7.932;2022-07-10T01:24:27;100079.03;;;17.64;82.47
32083;BME280;18597;48.328;7.932;2022-07-10T01:26:52;100073.59;;;17.47;83.45
32083;BME280;18597;48.328;7.932;2022-07-10T01:29:19;100070.91;;;17.56;83.53
32083;BME280;18597;48.328;7.932;2022-07-10T01:31:47;100076.13;;;17.49;83.22
32083;BME280;18597;48.328;7.932;2022-07-10T01:34:13;100077.94;;;17.40;83.92
32083;BME280;18597;48.328;7.932;2022-07-10T01:36:39;100095.66;;;17.35;84.59
32083;BME280;18597;48.328;7.932;2022-07-10T01:39:06;100093.31;;;17.40;84.08
32083;BME280;18597;48.328;7.932;2022-07-10T01:41:32;100088.41;;;17.43;83.89
32083;BME280;18597;48.328;7.932;2022-07-10T01:43:58;100089.81;;;17.56;83.45
32083;BME280;18597;48.328;7.932;2022-07-10T01:46:24;100092.88;;;17.69;82.66
32083;BME280;18597;48.328;7.932;2022-07-10T01:48:51;100094.56;;;17.70;82.65
32083;BME280;18597;48.328;7.932;2022-07-10T01:51:18;100096.75;;;17.66;83.11
32083;BME280;18597;48.328;7.932;2022-07-10T01:53:43;100100.97;;;17.61;83.52
32083;BME280;18597;48.328;7.932;2022-07-10T01:56:12;100100.47;;;17.65;82.92
32083;BME280;18597;48.328;7.932;2022-07-10T01:58:39;100101.97;;;17.68;82.60
32083;BME280;18597;48.328;7.932;2022-07-10T02:01:06;100107.72;;;17.65;82.65
32083;BME280;18597;48.328;7.932;2022-07-10T02:03:33;100109.22;;;17.59;83.04
32083;BME280;18597;48.328;7.932;2022-07-10T02:06:19;100109.59;;;17.64;82.71
32083;BME280;18597;48.328;7.932;2022-07-10T02:08:45;100108.56;;;17.65;82.52
32083;BME280;18597;48.328;7.932;2022-07-10T02:11:10;100105.03;;;17.65;82.50
32083;BME280;18597;48.328;7.932;2022-07-10T02:13:38;100109.41;;;17.66;83.03
32083;BME280;18597;48.328;7.932;2022-07-10T02:16:04;100108.81;;;17.80;82.71
32083;BME280;18597;48.328;7.932;2022-07-10T02:18:30;100108.31;;;17.77;82.67
32083;BME280;18597;48.328;7.932;2022-07-10T02:20:57;100108.41;;;17.67;83.10
32083;BME280;18597;48.328;7.932;2022-07-10T02:23:23;100104.69;;;17.68;83.66
32083;BME280;18597;48.328;7.932;2022-07-10T02:25:49;100103.69;;;17.69;83.73
32083;BME280;18597;48.328;7.932;2022-07-10T02:28:15;100112.00;;;17.75;83.26
32083;BME280;18597;48.328;7.932;2022-07-10T02:30:42;100103.41;;;17.80;82.89
32083;BME280;18597;48.328;7.932;2022-07-10T02:33:08;100103.75;;;17.77;83.32
32083;BME280;18597;48.328;7.932;2022-07-10T02:35:34;100109.66;;;17.97;82.25
32083;BME280;18597;48.328;7.932;2022-07-10T02:38:00;100104.91;;;17.83;82.75
32083;BME280;18597;48.328;7.932;2022-07-10T02:40:25;100113.03;;;17.91;83.07
32083;BME280;18597;48.328;7.932;2022-07-10T02:42:51;100098.81;;;17.72;83.56
32083;BME280;18597;48.328;7.932;2022-07-10T02:45:17;100104.16;;;17.56;84.65
32083;BME280;18597;48.328;7.932;2022-07-10T02:47:43;100101.97;;;17.68;84.87
32083;BME280;18597;48.328;7.932;2022-07-10T02:50:09;100104.66;;;17.60;84.71
32083;BME280;18597;48.328;7.932;2022-07-10T02:52:35;100110.75;;;17.54;84.98
32083;BME280;18597;48.328;7.932;2022-07-10T02:55:01;100086.75;;;17.59;85.05
32083;BME280;18597;48.328;7.932;2022-07-10T02:57:27;100092.88;;;17.69;85.19
32083;BME280;18597;48.328;7.932;2022-07-10T02:59:53;100102.72;;;17.78;85.27
32083;BME280;18597;48.328;7.932;2022-07-10T03:02:19;100091.72;;;17.71;84.92
32083;BME280;18597;48.328;7.932;2022-07-10T03:04:45;100094.56;;;17.70;85.24
32083;BME280;18597;48.328;7.932;2022-07-10T03:07:11;100105.69;;;17.67;86.53
32083;BME280;18597;48.328;7.932;2022-07-10T03:09:37;100095.44;;;17.70;87.09
32083;BME280;18597;48.328;7.932;2022-07-10T03:12:03;100092.53;;;17.64;87.61
32083;BME280;18597;48.328;7.932;2022-07-10T03:14:29;100098.16;;;17.70;87.10
32083;BME280;18597;48.328;7.932;2022-07-10T03:16:55;100092.03;;;17.68;88.13
32083;BME280;18597;48.328;7.932;2022-07-10T03:19:21;100094.28;;;17.89;87.46
32083;BME280;18597;48.328;7.932;2022-07-10T03:21:46;100098.00;;;17.80;88.74
32083;BME280;18597;48.328;7.932;2022-07-10T03:24:12;100104.75;;;17.76;89.16
32083;BME280;18597;48.328;7.932;2022-07-10T03:26:38;100105.63;;;17.85;88.34
32083;BME280;18597;48.328;7.932;2022-07-10T03:29:04;100101.03;;;17.77;88.48
32083;BME280;18597;48.328;7.932;2022-07-10T03:31:30;100094.44;;;17.80;88.16
32083;BME280;18597;48.328;7.932;2022-07-10T03:33:56;100098.78;;;17.64;88.47
32083;BME280;18597;48.328;7.932;2022-07-10T03:36:22;100110.78;;;17.70;88.22
32083;BME280;18597;48.328;7.932;2022-07-10T03:38:48;100102.78;;;17.52;88.91
32083;BME280;18597;48.328;7.932;2022-07-10T03:41:14;100103.91;;;17.33;89.85
32083;BME280;18597;48.328;7.932;2022-07-10T03:43:40;100112.84;;;17.26;90.06
32083;BME280;18597;48.328;7.932;2022-07-10T03:46:06;100102.34;;;17.23;90.26
32083;BME280;18597;48.328;7.932;2022-07-10T03:48:32;100107.22;;;17.19;89.97
32083;BME280;18597;48.328;7.932;2022-07-10T03:50:59;100107.59;;;17.24;89.67
32083;BME280;18597;48.328;7.932;2022-07-10T03:53:25;100119.31;;;17.07;89.42
32083;BME280;18597;48.328;7.932;2022-07-10T03:55:51;100117.28;;;17.01;89.46
32083;BME280;18597;48.328;7.932;2022-07-10T03:58:17;100113.06;;;17.06;89.11
32083;BME280;18597;48.328;7.932;2022-07-10T04:00:43;100106.28;;;16.94;89.33
32083;BME280;18597;48.328;7.932;2022-07-10T04:03:09;100115.53;;;16.91;88.59
32083;BME280;18597;48.328;7.932;2022-07-10T04:05:36;100114.47;;;16.84;89.55
32083;BME280;18597;48.328;7.932;2022-07-10T04:08:03;100111.09;;;16.82;89.61
32083;BME280;18597;48.328;7.932;2022-07-10T04:10:30;100104.72;;;16.91;88.66
32083;BME280;18597;48.328;7.932;2022-07-10T04:12:57;100112.53;;;16.95;87.80
32083;BME280;18597;48.328;7.932;2022-07-10T04:15:24;100115.06;;;16.96;87.31
32083;BME280;18597;48.328;7.932;2022-07-10T04:17:50;100113.53;;;17.36;84.47
32083;BME280;18597;48.328;7.932;2022-07-10T04:20:17;100112.72;;;17.43;83.09
32083;BME280;18597;48.328;7.932;2022-07-10T04:22:44;100109.09;;;17.61;81.23
32083;BME280;18597;48.328;7.932;2022-07-10T04:25:11;100109.41;;;17.66;79.93
32083;BME280;18597;48.328;7.932;2022-07-10T04:27:37;100106.94;;;17.81;79.28
32083;BME280;18597;48.328;7.932;2022-07-10T04:30:04;100113.56;;;17.86;78.00
32083;BME280;18597;48.328;7.932;2022-07-10T04:32:30;100112.53;;;17.95;77.12
32083;BME280;18597;48.328;7.932;2022-07-10T04:34:57;100110.88;;;18.11;75.59
32083;BME280;18597;48.328;7.932;2022-07-10T04:37:23;100113.09;;;18.15;74.49
32083;BME280;18597;48.328;7.932;2022-07-10T04:39:49;100117.97;;;18.12;74.50
32083;BME280;18597;48.328;7.932;2022-07-10T04:42:15;100114.94;;;18.15;74.25
32083;BME280;18597;48.328;7.932;2022-07-10T04:44:41;100109.19;;;18.18;74.14
32083;BME280;18597;48.328;7.932;2022-07-10T04:47:07;100114.09;;;18.14;73.64
32083;BME280;18597;48.328;7.932;2022-07-10T04:49:34;100117.66;;;18.23;73.52
32083;BME280;18597;48.328;7.932;2022-07-10T04:52:00;100117.34;;;19.61;66.34
32083;BME280;18597;48.328;7.932;2022-07-10T17:03:31;100034.63;;;22.79;36.83
32083;BME280;18597;48.328;7.932;2022-07-10T17:05:57;100042.13;;;22.70;36.63
32083;BME280;18597;48.328;7.932;2022-07-10T17:08:23;100042.72;;;22.66;36.63
32083;BME280;18597;48.328;7.932;2022-07-10T17:10:48;100036.56;;;22.57;37.13
32083;BME280;18597;48.328;7.932;2022-07-10T17:13:14;100034.31;;;22.61;37.18
32083;BME280;18597;48.328;7.932;2022-07-10T17:15:40;100033.50;;;22.67;37.42
32083;BME280;18597;48.328;7.932;2022-07-10T17:18:06;100038.09;;;22.60;37.19
32083;BME280;18597;48.328;7.932;2022-07-10T17:20:33;100040.66;;;22.68;37.22
32083;BME280;18597;48.328;7.932;2022-07-10T17:22:59;100029.03;;;22.59;37.45
32083;BME280;18597;48.328;7.932;2022-07-10T17:25:26;100040.59;;;22.61;37.06
32083;BME280;18597;48.328;7.932;2022-07-10T17:27:52;100037.41;;;22.58;36.59
32083;BME280;18597;48.328;7.932;2022-07-10T17:30:18;100047.81;;;22.48;37.26
32083;BME280;18597;48.328;7.932;2022-07-10T17:32:46;100046.31;;;22.38;37.59
32083;BME280;18597;48.328;7.932;2022-07-10T17:35:12;100053.69;;;22.45;37.37
32083;BME280;18597;48.328;7.932;2022-07-10T17:37:38;100046.34;;;22.45;37.57
32083;BME280;18597;48.328;7.932;2022-07-10T17:40:06;100046.88;;;22.62;37.13
32083;BME280;18597;48.328;7.932;2022-07-10T17:42:32;100058.97;;;22.53;37.23
32083;BME280;18597;48.328;7.932;2022-07-10T17:44:57;100051.53;;;22.40;37.51
32083;BME280;18597;48.328;7.932;2022-07-10T17:47:23;100052.97;;;22.36;37.25
32083;BME280;18597;48.328;7.932;2022-07-10T17:49:54;100056.66;;;22.28;37.28
32083;BME280;18597;48.328;7.932;2022-07-10T17:52:20;100057.22;;;22.17;37.37
32083;BME280;18597;48.328;7.932;2022-07-10T17:54:47;100059.13;;;22.02;37.83
32083;BME280;18597;48.328;7.932;2022-07-10T17:57:13;100050.91;;;21.95;38.19
32083;BME280;18597;48.328;7.932;2022-07-10T17:59:39;100055.66;;;21.86;38.65
32083;BME280;18597;48.328;7.932;2022-07-10T18:02:05;100055.66;;;21.86;38.37
32083;BME280;18597;48.328;7.932;2022-07-10T18:04:32;100050.47;;;21.92;38.48
32083;BME280;18597;48.328;7.932;2022-07-10T18:06:58;100059.97;;;21.81;38.82
32083;BME280;18597;48.328;7.932;2022-07-10T18:09:24;100051.66;;;21.68;38.94
32083;BME280;18597;48.328;7.932;2022-07-10T18:11:50;100050.88;;;21.52;39.59
32083;BME280;18597;48.328;7.932;2022-07-10T18:14:16;100060.66;;;21.47;39.52
32083;BME280;18597;48.328;7.932;2022-07-10T18:16:42;100062.22;;;21.56;39.69
32083;BME280;18597;48.328;7.932;2022-07-10T18:19:08;100059.22;;;21.51;40.05
32083;BME280;18597;48.328;7.932;2022-07-10T18:21:36;100058.50;;;21.42;39.94
32083;BME280;18597;48.328;7.932;2022-07-10T18:24:02;100065.81;;;21.42;39.78
32083;BME280;18597;48.328;7.932;2022-07-10T18:26:30;100074.72;;;21.21;40.29
32083;BME280;18597;48.328;7.932;2022-07-10T18:28:58;100069.69;;;21.03;41.03
32083;BME280;18597;48.328;7.932;2022-07-10T18:31:26;100074.91;;;20.90;41.40
32083;BME280;18597;48.328;7.932;2022-07-10T18:33:52;100071.38;;;20.89;41.62
32083;BME280;18597;48.328;7.932;2022-07-10T18:36:38;100083.25;;;20.88;41.77
32083;BME280;18597;48.328;7.932;2022-07-10T18:39:06;100075.41;;;20.78;41.94
32083;BME280;18597;48.328;7.932;2022-07-10T18:41:34;100071.06;;;20.69;41.74
32083;BME280;18597;48.328;7.932;2022-07-10T18:44:01;100075.53;;;20.47;42.30
32083;BME280;18597;48.328;7.932;2022-07-10T18:46:28;100084.41;;;20.41;42.46
32083;BME280;18597;48.328;7.932;2022-07-10T18:48:55;100086.97;;;20.58;42.37
32083;BME280;18597;48.328;7.932;2022-07-10T18:51:21;100084.38;;;20.64;42.42
32083;BME280;18597;48.328;7.932;2022-07-10T18:53:47;100092.94;;;20.53;41.98
32083;BME280;18597;48.328;7.932;2022-07-10T18:56:13;100083.59;;;20.33;42.66
32083;BME280;18597;48.328;7.932;2022-07-10T18:58:40;100082.00;;;20.23;43.04
32083;BME280;18597;48.328;7.932;2022-07-10T19:01:06;100084.50;;;20.10;43.42
32083;BME280;18597;48.328;7.932;2022-07-10T19:03:32;100094.44;;;19.95;43.88
32083;BME280;18597;48.328;7.932;2022-07-10T19:05:58;100096.06;;;19.81;44.22
32083;BME280;18597;48.328;7.932;2022-07-10T19:08:24;100098.81;;;19.73;44.87
32083;BME280;18597;48.328;7.932;2022-07-10T19:10:50;100102.28;;;19.59;45.47
32083;BME280;18597;48.328;7.932;2022-07-10T19:13:15;100107.22;;;19.47;45.83
32083;BME280;18597;48.328;7.932;2022-07-10T19:15:41;100107.88;;;19.49;46.36
32083;BME280;18597;48.328;7.932;2022-07-10T19:18:08;100106.41;;;19.38;46.44
32083;BME280;18597;48.328;7.932;2022-07-10T19:20:34;100108.50;;;19.28;46.94
32083;BME280;18597;48.328;7.932;2022-07-10T19:22:59;100105.69;;;19.13;47.22
32083;BME280;18597;48.328;7.932;2022-07-10T19:25:25;100116.28;;;19.31;47.11
32083;BME280;18597;48.328;7.932;2022-07-10T19:27:53;100116.72;;;18.96;47.71
32083;BME280;18597;48.328;7.932;2022-07-10T19:30:19;100120.00;;;18.83;48.02
32083;BME280;18597;48.328;7.932;2022-07-10T19:32:45;100114.91;;;18.72;48.38
32083;BME280;18597;48.328;7.932;2022-07-10T19:35:12;100114.63;;;18.67;48.72
32083;BME280;18597;48.328;7.932;2022-07-10T19:37:39;100122.38;;;18.45;49.07
32083;BME280;18597;48.328;7.932;2022-07-10T19:40:05;100120.69;;;18.52;49.51
32083;BME280;18597;48.328;7.932;2022-07-10T19:42:32;100119.84;;;18.52;49.72
32083;BME280;18597;48.328;7.932;2022-07-10T19:44:59;100123.38;;;18.52;50.23
32083;BME280;18597;48.328;7.932;2022-07-10T19:47:26;100132.19;;;18.30;50.08
32083;BME280;18597;48.328;7.932;2022-07-10T19:49:52;100129.47;;;18.22;49.77
32083;BME280;18597;48.328;7.932;2022-07-10T19:52:19;100128.09;;;18.10;50.49
32083;BME280;18597;48.328;7.932;2022-07-10T19:54:45;100137.06;;;18.02;51.12
32083;BME280;18597;48.328;7.932;2022-07-10T19:57:11;100138.91;;;17.93;52.21
32083;BME280;18597;48.328;7.932;2022-07-10T19:59:38;100136.84;;;17.79;53.06
32083;BME280;18597;48.328;7.932;2022-07-10T20:02:04;100130.97;;;17.84;52.52
32083;BME280;18597;48.328;7.932;2022-07-10T20:04:31;100132.63;;;17.77;53.60
32083;BME280;18597;48.328;7.932;2022-07-10T20:06:58;100144.59;;;17.74;53.30
32083;BME280;18597;48.328;7.932;2022-07-10T20:09:24;100143.97;;;17.46;54.74
32083;BME280;18597;48.328;7.932;2022-07-10T20:11:49;100152.91;;;17.38;55.47
32083;BME280;18597;48.328;7.932;2022-07-10T20:14:15;100156.34;;;17.23;55.85
32083;BME280;18597;48.328;7.932;2022-07-10T20:16:43;100156.47;;;17.13;56.14
32083;BME280;18597;48.328;7.932;2022-07-10T20:19:13;100159.16;;;17.13;56.29
32083;BME280;18597;48.328;7.932;2022-07-10T20:21:40;100157.41;;;16.96;57.10
32083;BME280;18597;48.328;7.932;2022-07-10T20:24:06;100163.88;;;16.85;57.51
32083;BME280;18597;48.328;7.932;2022-07-10T20:26:32;100166.84;;;16.74;58.80
32083;BME280;18597;48.328;7.932;2022-07-10T20:28:58;100165.06;;;16.82;59.80
32083;BME280;18597;48.328;7.932;2022-07-10T20:31:24;100170.25;;;16.58;61.01
32083;BME280;18597;48.328;7.932;2022-07-10T20:33:50;100159.84;;;16.45;61.22
32083;BME280;18597;48.328;7.932;2022-07-10T20:36:16;100172.19;;;16.30;61.91
32083;BME280;18597;48.328;7.932;2022-07-10T20:39:02;100167.91;;;16.19;62.56
32083;BME280;18597;48.328;7.932;2022-07-10T20:41:28;100172.06;;;15.96;63.28
32083;BME280;18597;48.328;7.932;2022-07-10T20:43:54;100163.31;;;15.84;63.96
32083;BME280;18597;48.328;7.932;2022-07-10T20:46:19;100172.84;;;15.78;64.50
32083;BME280;18597;48.328;7.932;2022-07-10T20:48:45;100175.78;;;15.85;65.03
32083;BME280;18597;48.328;7.932;2022-07-10T20:51:11;100181.56;;;15.72;64.86
32083;BME280;18597;48.328;7.932;2022-07-10T20:53:37;100184.28;;;15.63;65.13
32083;BME280;18597;48.328;7.932;2022-07-10T20:56:04;100181.78;;;15.51;65.92
32083;BME280;18597;48.328;7.932;2022-07-10T20:58:30;100182.53;;;15.44;66.83
32083;BME280;18597;48.328;7.932;2022-07-10T21:00:55;100186.41;;;15.32;67.71
32083;BME280;18597;48.328;7.932;2022-07-10T21:03:21;100182.91;;;15.21;68.61
32083;BME280;18597;48.328;7.932;2022-07-10T21:05:47;100190.28;;;15.10;69.32
32083;BME280;18597;48.328;7.932;2022-07-10T21:08:13;100188.06;;;15.05;70.15
32083;BME280;18597;48.328;7.932;2022-07-10T21:10:39;100192.28;;;15.08;71.03
32083;BME280;18597;48.328;7.932;2022-07-10T21:13:11;100194.44;;;15.04;71.23
32083;BME280;18597;48.328;7.932;2022-07-10T21:15:38;100185.91;;;15.09;71.29
32083;BME280;18597;48.328;7.932;2022-07-10T21:18:05;100195.03;;;14.98;71.96
32083;BME280;18597;48.328;7.932;2022-07-10T21:20:31;100193.91;;;14.91;72.87
32083;BME280;18597;48.328;7.932;2022-07-10T21:22:57;100198.88;;;14.86;73.27
32083;BME280;18597;48.328;7.932;2022-07-10T21:25:24;100201.13;;;14.81;73.40
32083;BME280;18597;48.328;7.932;2022-07-10T21:27:50;100195.91;;;14.79;73.25
32083;BME280;18597;48.328;7.932;2022-07-10T21:30:18;100195.63;;;14.73;73.35
32083;BME280;18597;48.328;7.932;2022-07-10T21:32:45;100200.31;;;14.70;72.95
32083;BME280;18597;48.328;7.932;2022-07-10T21:35:13;100196.34;;;14.65;73.54
32083;BME280;18597;48.328;7.932;2022-07-10T21:37:39;100198.06;;;14.56;74.02
32083;BME280;18597;48.328;7.932;2022-07-10T21:40:07;100190.84;;;14.57;74.36
32083;BME280;18597;48.328;7.932;2022-07-10T21:42:33;100194.31;;;14.86;73.91
32083;BME280;18597;48.328;7.932;2022-07-10T21:44:59;100194.94;;;14.70;73.95
32083;BME280;18597;48.328;7.932;2022-07-10T21:47:25;100188.72;;;14.51;75.24
32083;BME280;18597;48.328;7.932;2022-07-10T21:49:51;100177.41;;;14.47;75.85
32083;BME280;18597;48.328;7.932;2022-07-10T21:52:17;100182.47;;;14.40;76.46
32083;BME280;18597;48.328;7.932;2022-07-10T21:54:44;100179.63;;;14.42;76.71
32083;BME280;18597;48.328;7.932;2022-07-10T21:57:10;100181.91;;;14.27;77.54
32083;BME280;18597;48.328;7.932;2022-07-10T21:59:36;100185.03;;;14.23;78.26
32083;BME280;18597;48.328;7.932;2022-07-10T22:02:02;100175.84;;;14.15;78.30
32083;BME280;18597;48.328;7.932;2022-07-10T22:04:28;100181.63;;;14.21;78.83
32083;BME280;18597;48.328;7.932;2022-07-10T22:06:54;100185.44;;;14.18;78.42
32083;BME280;18597;48.328;7.932;2022-07-10T22:09:20;100184.47;;;14.29;78.22
32083;BME280;18597;48.328;7.932;2022-07-10T22:11:47;100181.63;;;14.11;78.54
32083;BME280;18597;48.328;7.932;2022-07-10T22:14:13;100186.69;;;14.04;79.05
32083;BME280;18597;48.328;7.932;2022-07-10T22:16:39;100186.28;;;13.99;79.19
32083;BME280;18597;48.328;7.932;2022-07-10T22:19:05;100180.88;;;13.89;79.55
32083;BME280;18597;48.328;7.932;2022-07-10T22:21:31;100182.41;;;13.82;80.10
32083;BME280;18597;48.328;7.932;2022-07-10T22:23:57;100182.72;;;13.89;80.40
32083;BME280;18597;48.328;7.932;2022-07-10T22:26:23;100186.53;;;13.77;80.76
32083;BME280;18597;48.328;7.932;2022-07-10T22:28:49;100193.59;;;13.68;81.45
32083;BME280;18597;48.328;7.932;2022-07-10T22:31:15;100187.47;;;13.66;82.42
32083;BME280;18597;48.328;7.932;2022-07-10T22:33:43;100188.31;;;13.67;82.60
32083;BME280;18597;48.328;7.932;2022-07-10T22:36:09;100186.31;;;13.59;82.41
32083;BME280;18597;48.328;7.932;2022-07-10T22:38:37;100179.81;;;13.52;82.59
32083;BME280;18597;48.328;7.932;2022-07-10T22:41:03;100178.97;;;13.51;82.67
32083;BME280;18597;48.328;7.932;2022-07-10T22:43:29;100182.59;;;13.41;83.10
32083;BME280;18597;48.328;7.932;2022-07-10T22:45:56;100179.63;;;13.34;83.52
32083;BME280;18597;48.328;7.932;2022-07-10T22:48:23;100179.91;;;13.31;83.98
32083;BME280;18597;48.328;7.932;2022-07-10T22:50:49;100185.34;;;13.20;84.61
32083;BME280;18597;48.328;7.932;2022-07-10T22:53:15;100178.63;;;13.14;84.91
32083;BME280;18597;48.328;7.932;2022-07-10T22:55:42;100177.47;;;13.07;85.47
32083;BME280;18597;48.328;7.932;2022-07-10T22:58:07;100175.66;;;13.08;85.93
32083;BME280;18597;48.328;7.932;2022-07-10T23:00:34;100181.69;;;13.00;86.30
32083;BME280;18597;48.328;7.932;2022-07-10T23:03:02;100177.91;;;13.02;86.19
32083;BME280;18597;48.328;7.932;2022-07-10T23:05:28;100182.13;;;13.05;86.28
32083;BME280;18597;48.328;7.932;2022-07-10T23:07:54;100176.19;;;13.01;86.76
32083;BME280;18597;48.328;7.932;2022-07-10T23:10:20;100181.94;;;12.97;86.83
32083;BME280;18597;48.328;7.932;2022-07-10T23:12:47;100177.72;;;12.94;86.82
32083;BME280;18597;48.328;7.932;2022-07-10T23:15:13;100177.63;;;13.05;86.63
32083;BME280;18597;48.328;7.932;2022-07-10T23:17:39;100177.91;;;13.02;86.30
32083;BME280;18597;48.328;7.932;2022-07-10T23:20:06;100181.13;;;13.27;85.65
32083;BME280;18597;48.328;7.932;2022-07-10T23:22:32;100178.38;;;13.38;85.02
32083;BME280;18597;48.328;7.932;2022-07-10T23:24:58;100176.66;;;13.37;84.69
32083;BME280;18597;48.328;7.932;2022-07-10T23:27:25;100170.78;;;13.22;85.69
32083;BME280;18597;48.328;7.932;2022-07-10T23:29:53;100168.03;;;13.13;85.89
32083;BME280;18597;48.328;7.932;2022-07-10T23:32:19;100170.50;;;12.95;87.38
32083;BME280;18597;48.328;7.932;2022-07-10T23:34:46;100170.16;;;12.78;88.09
32083;BME280;18597;48.328;7.932;2022-07-10T23:37:13;100169.66;;;12.94;87.51
32083;BME280;18597;48.328;7.932;2022-07-10T23:39:40;100168.72;;;13.05;86.63
32083;BME280;18597;48.328;7.932;2022-07-10T23:42:06;100164.94;;;13.08;86.54
32083;BME280;18597;48.328;7.932;2022-07-10T23:44:33;100168.84;;;13.03;86.72
32083;BME280;18597;48.328;7.932;2022-07-10T23:46:59;100163.50;;;13.03;86.41
32083;BME280;18597;48.328;7.932;2022-07-10T23:49:25;100158.13;;;13.03;86.59
32083;BME280;18597;48.328;7.932;2022-07-10T23:52:11;100158.28;;;12.81;87.37
32083;BME280;18597;48.328;7.932;2022-07-10T23:54:37;100154.41;;;12.95;86.98
32083;BME280;18597;48.328;7.932;2022-07-10T23:57:08;100162.28;;;12.87;87.52
32083;BME280;18597;48.328;7.932;2022-07-10T23:59:35;100163.41;;;12.63;88.74
